Time;durP1;ratioP1;P1;durP2;ratioP2;P2;SDS_P1;SDS_P2;PMS_P1;PMS_P2;Temp;Humidity;BMP_temperature;BMP_pressure;BME280_temperature;BME280_humidity;BME280_pressure;Samples;Min_cycle;Max_cycle;Signal;HPM_P1;HPM_P2
2023/08/18 00:00:14;;;;;;;5.50;3.53;;;;;;;;;;5001953;28;20116;-87
2023/08/18 00:02:40;;;;;;;6.15;3.88;;;;;;;;;;5008528;28;20041;-76
2023/08/18 00:05:06;;;;;;;5.25;3.72;;;;;;;;;;5009262;28;20413;-76
2023/08/18 00:07:32;;;;;;;5.38;4.00;;;;;;;;;;5012498;28;20096;-77
2023/08/18 00:09:57;;;;;;;8.75;4.30;;;;;;;;;;5001243;28;20026;-77
2023/08/18 00:12:23;;;;;;;5.20;3.60;;;;;;;;;;5010115;28;20529;-77
2023/08/18 00:14:50;;;;;;;4.53;3.50;;;;;;;;;;5024248;28;20025;-76
2023/08/18 00:17:15;;;;;;;5.20;4.05;;;;;;;;;;5007831;28;20037;-77
2023/08/18 00:19:41;;;;;;;7.15;4.43;;;;;;;;;;5013517;28;20112;-77
2023/08/18 00:22:06;;;;;;;6.30;3.80;;;;;;;;;;5011317;28;20030;-76
2023/08/18 00:24:32;;;;;;;6.47;3.70;;;;;;;;;;5014661;28;20080;-76
2023/08/18 00:26:57;;;;;;;7.22;3.78;;;;;;;;;;5011821;28;20149;-77
2023/08/18 00:29:23;;;;;;;6.00;3.97;;;;;;;;;;5010164;28;20037;-76
2023/08/18 00:31:48;;;;;;;4.45;3.22;;;;;;;;;;5012018;28;20121;-76
2023/08/18 00:34:13;;;;;;;5.15;4.00;;;;;;;;;;5012579;28;20379;-76
2023/08/18 00:36:39;;;;;;;4.75;3.50;;;;;;;;;;5006505;28;20192;-76
2023/08/18 00:39:04;;;;;;;5.95;3.80;;;;;;;;;;5008736;28;20034;-77
2023/08/18 00:41:30;;;;;;;5.78;3.53;;;;;;;;;;5012070;28;20025;-76
2023/08/18 00:43:56;;;;;;;5.63;3.47;;;;;;;;;;5005385;28;20533;-77
2023/08/18 00:46:21;;;;;;;4.53;3.10;;;;;;;;;;5007587;28;20160;-77
2023/08/18 00:48:48;;;;;;;4.40;2.80;;;;;;;;;;5005522;28;20029;-77
2023/08/18 00:51:14;;;;;;;4.88;3.33;;;;;;;;;;5009010;28;20481;-84
2023/08/18 00:53:41;;;;;;;6.25;4.15;;;;;;;;;;5007917;28;20156;-85
2023/08/18 00:56:09;;;;;;;5.45;3.45;;;;;;;;;;5021426;28;20115;-85
2023/08/18 00:58:36;;;;;;;5.00;3.78;;;;;;;;;;5000811;28;20041;-85
2023/08/18 01:01:02;;;;;;;4.80;3.50;;;;;;;;;;5006786;28;20088;-83
2023/08/18 01:03:29;;;;;;;6.15;4.35;;;;;;;;;;5003834;28;20108;-83
2023/08/18 01:05:54;;;;;;;4.40;3.40;;;;;;;;;;5005789;28;20058;-83
2023/08/18 01:08:19;;;;;;;4.45;3.20;;;;;;;;;;5001941;28;20175;-84
2023/08/18 01:11:00;;;;;;;5.95;4.35;;;;;;;;;;5002434;28;20030;-83
2023/08/18 01:13:36;;;;;;;5.55;3.88;;;;;;;;;;5000888;28;20030;-78
2023/08/18 01:16:06;;;;;;;5.97;4.50;;;;;;;;;;5007007;28;20032;-78
2023/08/18 01:18:33;;;;;;;4.60;3.55;;;;;;;;;;5004437;28;20031;-78
2023/08/18 01:21:02;;;;;;;5.40;3.75;;;;;;;;;;5005428;28;20092;-76
2023/08/18 01:23:38;;;;;;;5.28;3.78;;;;;;;;;;5011701;28;20036;-76
2023/08/18 01:26:04;;;;;;;5.05;3.60;;;;;;;;;;5005640;28;20049;-77
2023/08/18 01:28:30;;;;;;;5.65;3.50;;;;;;;;;;5013292;28;20042;-76
2023/08/18 01:30:57;;;;;;;5.55;3.75;;;;;;;;;;5002975;28;20088;-76
2023/08/18 01:33:34;;;;;;;5.82;3.90;;;;;;;;;;5003733;28;20107;-76
2023/08/18 01:36:05;;;;;;;5.90;4.32;;;;;;;;;;5002259;28;20064;-76
2023/08/18 01:38:31;;;;;;;4.88;3.42;;;;;;;;;;5013374;28;20375;-76
2023/08/18 01:40:58;;;;;;;6.40;4.53;;;;;;;;;;5009497;28;20030;-76
2023/08/18 01:43:24;;;;;;;5.53;3.90;;;;;;;;;;5008899;28;20548;-76
2023/08/18 01:45:49;;;;;;;5.20;3.72;;;;;;;;;;5013686;28;20033;-78
2023/08/18 01:48:14;;;;;;;7.10;3.83;;;;;;;;;;5008746;28;20045;-76
2023/08/18 01:50:40;;;;;;;5.00;3.70;;;;;;;;;;5006203;28;20394;-77
2023/08/18 01:53:05;;;;;;;4.65;3.60;;;;;;;;;;5006429;28;20075;-76
2023/08/18 01:55:30;;;;;;;5.50;4.07;;;;;;;;;;5010753;28;20397;-76
2023/08/18 01:57:56;;;;;;;5.95;4.40;;;;;;;;;;5006995;28;20036;-77
2023/08/18 02:00:21;;;;;;;5.55;4.10;;;;;;;;;;5009040;28;20021;-78
2023/08/18 02:02:47;;;;;;;6.35;3.55;;;;;;;;;;5006382;28;20032;-84
2023/08/18 02:05:13;;;;;;;4.43;3.55;;;;;;;;;;5004194;28;20026;-85
2023/08/18 02:07:38;;;;;;;5.95;3.45;;;;;;;;;;5004931;28;20033;-85
2023/08/18 02:10:04;;;;;;;5.75;3.90;;;;;;;;;;5003289;28;20500;-79
2023/08/18 02:12:30;;;;;;;6.05;4.40;;;;;;;;;;5002932;28;20611;-86
2023/08/18 02:14:55;;;;;;;6.68;3.85;;;;;;;;;;5005807;28;20125;-82
2023/08/18 02:17:21;;;;;;;4.82;3.63;;;;;;;;;;5004960;28;20049;-79
2023/08/18 02:19:46;;;;;;;5.05;3.75;;;;;;;;;;5022034;28;20022;-84
2023/08/18 02:22:11;;;;;;;5.45;3.70;;;;;;;;;;5007625;28;20355;-76
2023/08/18 02:24:37;;;;;;;5.82;3.90;;;;;;;;;;5002561;28;20025;-76
2023/08/18 02:27:02;;;;;;;5.85;4.20;;;;;;;;;;5022930;28;20067;-77
2023/08/18 02:29:28;;;;;;;5.63;3.85;;;;;;;;;;5005255;28;20112;-77
2023/08/18 02:31:53;;;;;;;4.57;3.28;;;;;;;;;;5004525;28;20050;-76
2023/08/18 02:34:19;;;;;;;5.72;4.13;;;;;;;;;;5018893;28;20029;-76
2023/08/18 02:36:44;;;;;;;5.25;3.80;;;;;;;;;;5000937;28;20106;-75
2023/08/18 02:39:10;;;;;;;5.72;3.85;;;;;;;;;;5005743;28;20409;-76
2023/08/18 02:41:35;;;;;;;4.47;3.70;;;;;;;;;;5006916;28;20028;-75
2023/08/18 02:44:03;;;;;;;5.07;3.95;;;;;;;;;;5012350;28;20037;-76
2023/08/18 02:46:28;;;;;;;6.07;4.38;;;;;;;;;;5010158;28;20026;-75
2023/08/18 02:48:53;;;;;;;5.55;3.88;;;;;;;;;;5009427;28;20037;-76
2023/08/18 02:51:19;;;;;;;5.50;4.43;;;;;;;;;;5012457;28;20034;-76
2023/08/18 02:53:48;;;;;;;4.82;3.60;;;;;;;;;;5005829;28;20087;-75
2023/08/18 02:56:14;;;;;;;5.80;4.45;;;;;;;;;;5010325;28;20053;-76
2023/08/18 02:58:39;;;;;;;6.35;3.92;;;;;;;;;;5008477;28;20064;-76
2023/08/18 03:01:06;;;;;;;5.82;4.05;;;;;;;;;;5012443;28;20025;-76
2023/08/18 03:03:32;;;;;;;5.45;3.60;;;;;;;;;;5011569;28;20043;-76
2023/08/18 03:06:08;;;;;;;6.25;4.22;;;;;;;;;;5008705;28;20032;-76
2023/08/18 03:08:35;;;;;;;5.75;4.10;;;;;;;;;;5006336;28;20088;-75
2023/08/18 03:11:02;;;;;;;4.80;3.53;;;;;;;;;;5003878;28;20056;-77
2023/08/18 03:13:28;;;;;;;4.82;3.67;;;;;;;;;;5013751;28;20053;-84
2023/08/18 03:15:53;;;;;;;5.18;3.97;;;;;;;;;;5012831;28;20033;-86
2023/08/18 03:18:19;;;;;;;4.70;3.38;;;;;;;;;;5015495;28;20033;-87
2023/08/18 03:20:46;;;;;;;6.03;3.83;;;;;;;;;;5018131;28;20030;-86
2023/08/18 03:23:15;;;;;;;5.97;4.32;;;;;;;;;;5013206;28;20093;-85
2023/08/18 03:25:42;;;;;;;5.53;3.55;;;;;;;;;;5012603;28;20026;-84
2023/08/18 03:28:07;;;;;;;5.75;4.15;;;;;;;;;;5015116;28;20084;-86
2023/08/18 03:30:37;;;;;;;5.50;3.63;;;;;;;;;;5014807;28;20421;-87
2023/08/18 03:33:03;;;;;;;6.68;4.07;;;;;;;;;;5010897;28;20036;-86
2023/08/18 03:35:30;;;;;;;5.93;3.90;;;;;;;;;;5011038;28;20037;-86
2023/08/18 03:37:55;;;;;;;5.78;3.80;;;;;;;;;;5011842;28;20022;-86
2023/08/18 03:40:21;;;;;;;4.75;3.28;;;;;;;;;;5009405;28;20600;-85
2023/08/18 03:42:46;;;;;;;6.38;4.75;;;;;;;;;;5009910;28;20037;-85
2023/08/18 03:45:12;;;;;;;5.43;3.97;;;;;;;;;;5012911;28;20084;-85
2023/08/18 03:47:37;;;;;;;8.13;4.57;;;;;;;;;;5009945;28;20125;-86
2023/08/18 03:50:04;;;;;;;5.40;4.30;;;;;;;;;;5005943;28;20096;-87
2023/08/18 03:52:29;;;;;;;6.28;4.00;;;;;;;;;;5010694;28;20022;-80
2023/08/18 03:54:55;;;;;;;7.35;4.60;;;;;;;;;;5025651;28;20037;-82
2023/08/18 03:57:20;;;;;;;5.20;3.75;;;;;;;;;;5010415;28;20026;-86
2023/08/18 03:59:46;;;;;;;5.80;4.43;;;;;;;;;;5011181;28;21425;-85
2023/08/18 04:02:11;;;;;;;6.78;4.82;;;;;;;;;;5013836;28;20397;-86
2023/08/18 04:04:36;;;;;;;6.10;4.10;;;;;;;;;;5013853;28;20034;-79
2023/08/18 04:07:02;;;;;;;5.90;3.60;;;;;;;;;;5011983;28;20080;-85
2023/08/18 04:09:28;;;;;;;5.05;3.55;;;;;;;;;;5007947;28;20466;-86
2023/08/18 04:11:53;;;;;;;6.32;4.75;;;;;;;;;;5012606;28;20440;-86
2023/08/18 04:14:19;;;;;;;6.35;4.10;;;;;;;;;;5015924;28;20033;-87
2023/08/18 04:16:45;;;;;;;5.63;3.63;;;;;;;;;;5013631;28;20084;-86
2023/08/18 04:19:11;;;;;;;6.75;4.68;;;;;;;;;;5029119;28;20038;-86
2023/08/18 04:21:36;;;;;;;5.68;3.97;;;;;;;;;;5006549;28;20375;-81
2023/08/18 04:24:02;;;;;;;6.22;4.53;;;;;;;;;;5011116;28;20025;-84
2023/08/18 04:26:31;;;;;;;5.95;4.35;;;;;;;;;;5006616;28;20034;-84
2023/08/18 04:28:56;;;;;;;5.88;4.40;;;;;;;;;;5007358;28;20030;-85
2023/08/18 04:31:22;;;;;;;4.80;3.63;;;;;;;;;;5022015;28;20702;-83
2023/08/18 04:33:47;;;;;;;7.38;4.68;;;;;;;;;;5007709;28;20494;-86
2023/08/18 04:36:13;;;;;;;6.80;4.07;;;;;;;;;;5005044;28;20022;-84
2023/08/18 04:38:38;;;;;;;5.88;3.55;;;;;;;;;;5004628;28;20026;-85
2023/08/18 04:41:03;;;;;;;5.38;4.32;;;;;;;;;;5001816;28;20026;-83
2023/08/18 04:43:30;;;;;;;6.97;4.75;;;;;;;;;;5007937;28;20030;-76
2023/08/18 04:45:57;;;;;;;5.65;3.90;;;;;;;;;;5003954;28;20080;-75
2023/08/18 04:48:23;;;;;;;8.35;4.32;;;;;;;;;;5012281;28;20157;-75
2023/08/18 04:50:49;;;;;;;6.47;4.43;;;;;;;;;;5002716;28;20533;-76
2023/08/18 04:53:15;;;;;;;7.70;5.45;;;;;;;;;;5009237;28;20157;-76
2023/08/18 04:55:41;;;;;;;7.72;4.65;;;;;;;;;;5002832;28;20030;-75
2023/08/18 04:58:12;;;;;;;6.80;4.68;;;;;;;;;;5007016;28;20409;-75
2023/08/18 05:00:39;;;;;;;7.28;4.40;;;;;;;;;;5010504;28;20025;-76
2023/08/18 05:03:05;;;;;;;5.45;3.50;;;;;;;;;;5008004;28;20022;-76
2023/08/18 05:05:32;;;;;;;7.13;4.78;;;;;;;;;;5006976;28;20044;-75
2023/08/18 05:07:58;;;;;;;8.38;4.68;;;;;;;;;;5014002;28;20397;-76
2023/08/18 05:10:23;;;;;;;6.95;4.85;;;;;;;;;;5000580;28;20037;-76
2023/08/18 05:12:48;;;;;;;7.20;5.07;;;;;;;;;;5006289;28;20533;-76
2023/08/18 05:15:14;;;;;;;8.27;5.13;;;;;;;;;;5005771;28;20632;-76
2023/08/18 05:17:39;;;;;;;7.68;5.30;;;;;;;;;;5005232;28;20034;-75
2023/08/18 05:20:05;;;;;;;7.40;5.43;;;;;;;;;;5002043;28;20044;-76
2023/08/18 05:22:31;;;;;;;12.80;5.85;;;;;;;;;;5005001;28;20036;-76
2023/08/18 05:24:56;;;;;;;10.13;5.93;;;;;;;;;;4994948;28;20132;-78
2023/08/18 05:27:22;;;;;;;8.35;4.82;;;;;;;;;;5007874;28;20024;-78
2023/08/18 05:29:49;;;;;;;7.97;4.47;;;;;;;;;;5004855;28;20030;-75
2023/08/18 05:32:14;;;;;;;7.80;4.50;;;;;;;;;;5001265;28;20018;-76
2023/08/18 05:34:40;;;;;;;11.25;6.88;;;;;;;;;;5004968;28;20496;-76
2023/08/18 05:37:06;;;;;;;11.95;6.65;;;;;;;;;;5001275;28;20038;-76
2023/08/18 05:39:31;;;;;;;9.93;6.55;;;;;;;;;;5010646;28;20453;-75
2023/08/18 05:41:57;;;;;;;8.77;6.15;;;;;;;;;;5005556;28;20037;-76
2023/08/18 05:44:22;;;;;;;9.75;5.90;;;;;;;;;;5010849;28;20025;-75
2023/08/18 05:46:48;;;;;;;8.93;6.03;;;;;;;;;;5008707;28;20022;-76
2023/08/18 05:49:13;;;;;;;8.57;6.30;;;;;;;;;;5006944;28;20112;-76
2023/08/18 05:51:42;;;;;;;9.07;5.97;;;;;;;;;;5014376;28;20076;-79
2023/08/18 05:54:09;;;;;;;10.88;6.55;;;;;;;;;;5012516;28;20026;-75
2023/08/18 05:56:34;;;;;;;9.63;6.45;;;;;;;;;;5007111;28;20068;-76
2023/08/18 05:58:59;;;;;;;8.98;5.88;;;;;;;;;;5007154;28;20053;-76
2023/08/18 06:01:25;;;;;;;9.43;6.40;;;;;;;;;;5000820;28;20382;-76
2023/08/18 06:03:51;;;;;;;13.70;8.55;;;;;;;;;;5013568;28;20033;-76
2023/08/18 06:06:16;;;;;;;8.65;5.80;;;;;;;;;;5024631;28;20348;-76
2023/08/18 06:08:41;;;;;;;10.55;6.35;;;;;;;;;;5004193;28;20030;-76
2023/08/18 06:11:07;;;;;;;8.85;5.53;;;;;;;;;;5006081;28;20405;-76
2023/08/18 06:13:32;;;;;;;9.88;6.00;;;;;;;;;;5005197;28;20548;-75
2023/08/18 06:16:02;;;;;;;11.20;7.57;;;;;;;;;;5005640;28;20026;-76
2023/08/18 06:18:28;;;;;;;7.50;6.28;;;;;;;;;;5015059;28;20037;-76
2023/08/18 06:20:53;;;;;;;10.85;7.00;;;;;;;;;;5012676;28;20451;-76
2023/08/18 06:23:19;;;;;;;10.45;7.00;;;;;;;;;;5012670;28;20068;-79
2023/08/18 06:25:44;;;;;;;11.13;8.00;;;;;;;;;;5012143;28;20021;-76
2023/08/18 06:28:09;;;;;;;9.30;6.50;;;;;;;;;;5012466;28;20026;-75
2023/08/18 06:30:35;;;;;;;11.27;7.63;;;;;;;;;;5006378;28;20040;-76
2023/08/18 06:33:00;;;;;;;10.88;7.25;;;;;;;;;;5010378;28;20029;-76
2023/08/18 06:35:25;;;;;;;10.77;7.10;;;;;;;;;;5015148;28;20024;-76
2023/08/18 06:37:51;;;;;;;11.18;7.43;;;;;;;;;;5016687;28;20466;-77
2023/08/18 06:40:16;;;;;;;13.15;7.45;;;;;;;;;;5015151;28;20029;-77
2023/08/18 06:42:42;;;;;;;13.23;8.68;;;;;;;;;;5014347;28;20501;-81
2023/08/18 06:45:08;;;;;;;10.68;7.35;;;;;;;;;;5013000;28;20030;-82
2023/08/18 06:47:33;;;;;;;9.95;7.07;;;;;;;;;;5013839;28;20030;-85
2023/08/18 06:49:59;;;;;;;10.75;7.88;;;;;;;;;;5015459;28;20038;-85
2023/08/18 06:52:26;;;;;;;10.63;6.88;;;;;;;;;;5030210;28;20455;-82
2023/08/18 06:54:51;;;;;;;14.55;8.15;;;;;;;;;;5013001;28;20034;-85
2023/08/18 06:57:16;;;;;;;13.65;8.80;;;;;;;;;;5009736;28;20545;-85
2023/08/18 06:59:42;;;;;;;12.95;9.27;;;;;;;;;;5009850;28;20022;-85
2023/08/18 07:02:08;;;;;;;13.35;8.45;;;;;;;;;;5017707;28;20065;-76
2023/08/18 07:04:34;;;;;;;13.38;9.07;;;;;;;;;;5008678;28;20099;-78
2023/08/18 07:06:59;;;;;;;12.18;8.25;;;;;;;;;;5024123;28;20026;-77
2023/08/18 07:09:25;;;;;;;12.23;8.50;;;;;;;;;;5013489;28;20065;-77
2023/08/18 07:11:50;;;;;;;11.85;7.50;;;;;;;;;;5009008;28;20774;-77
2023/08/18 07:14:16;;;;;;;12.63;8.35;;;;;;;;;;5010953;28;20033;-77
2023/08/18 07:16:41;;;;;;;13.65;9.50;;;;;;;;;;5009428;28;20030;-77
2023/08/18 07:19:06;;;;;;;12.38;8.45;;;;;;;;;;5012399;28;20033;-76
2023/08/18 07:21:32;;;;;;;10.13;6.85;;;;;;;;;;5015019;28;20030;-76
2023/08/18 07:23:57;;;;;;;9.85;6.78;;;;;;;;;;5010341;28;20448;-78
2023/08/18 07:26:23;;;;;;;16.30;10.18;;;;;;;;;;5005291;28;20056;-76
2023/08/18 07:28:48;;;;;;;10.98;8.00;;;;;;;;;;5022885;28;20040;-77
2023/08/18 07:31:13;;;;;;;15.25;9.30;;;;;;;;;;5004594;28;20038;-77
2023/08/18 07:33:39;;;;;;;17.48;9.88;;;;;;;;;;5005887;28;20127;-77
2023/08/18 07:36:05;;;;;;;11.27;7.43;;;;;;;;;;5022087;28;20040;-79
2023/08/18 07:38:34;;;;;;;15.50;9.63;;;;;;;;;;5023734;28;20046;-77
2023/08/18 07:40:59;;;;;;;14.77;9.20;;;;;;;;;;5014837;28;20111;-79
2023/08/18 07:43:25;;;;;;;13.13;8.77;;;;;;;;;;5013894;28;20112;-76
2023/08/18 07:45:50;;;;;;;14.15;9.55;;;;;;;;;;5008940;28;20044;-76
2023/08/18 07:48:16;;;;;;;13.40;9.15;;;;;;;;;;5007485;28;20034;-77
2023/08/18 07:50:42;;;;;;;14.13;9.80;;;;;;;;;;5017002;28;20025;-76
2023/08/18 07:53:07;;;;;;;17.83;10.88;;;;;;;;;;5008488;28;20052;-76
2023/08/18 07:55:33;;;;;;;19.63;11.13;;;;;;;;;;5012276;28;20026;-76
2023/08/18 07:57:58;;;;;;;16.05;10.90;;;;;;;;;;5012185;28;20033;-77
2023/08/18 08:00:26;;;;;;;14.55;10.07;;;;;;;;;;5003678;28;20084;-77
2023/08/18 08:02:52;;;;;;;15.15;10.52;;;;;;;;;;5008584;28;20486;-77
2023/08/18 08:05:19;;;;;;;15.05;9.77;;;;;;;;;;5005571;28;20046;-77
2023/08/18 08:07:44;;;;;;;14.80;10.43;;;;;;;;;;5008522;28;20608;-78
2023/08/18 08:10:10;;;;;;;13.07;8.68;;;;;;;;;;5010456;28;20104;-78
2023/08/18 08:12:38;;;;;;;15.65;10.00;;;;;;;;;;5005400;28;20084;-76
2023/08/18 08:15:04;;;;;;;13.00;8.52;;;;;;;;;;5009434;28;20026;-75
2023/08/18 08:17:30;;;;;;;13.77;9.13;;;;;;;;;;5006392;28;20061;-76
2023/08/18 08:20:16;;;;;;;14.55;8.80;;;;;;;;;;5007464;28;20104;-76
2023/08/18 08:22:43;;;;;;;13.77;9.63;;;;;;;;;;5006233;28;20117;-76
2023/08/18 08:25:09;;;;;;;14.38;10.15;;;;;;;;;;5024041;28;20080;-80
2023/08/18 08:27:34;;;;;;;14.82;9.73;;;;;;;;;;5006717;28;20095;-77
2023/08/18 08:30:00;;;;;;;14.07;9.77;;;;;;;;;;5010152;28;20033;-79
2023/08/18 08:32:26;;;;;;;16.38;9.57;;;;;;;;;;5005019;28;20430;-76
2023/08/18 08:34:51;;;;;;;14.65;9.55;;;;;;;;;;5023259;28;20056;-76
2023/08/18 08:37:17;;;;;;;14.57;9.80;;;;;;;;;;5009223;28;20034;-75
2023/08/18 08:39:43;;;;;;;15.43;9.60;;;;;;;;;;5007939;28;20025;-77
2023/08/18 08:42:09;;;;;;;17.38;10.57;;;;;;;;;;5004143;28;20034;-80
2023/08/18 08:44:35;;;;;;;15.10;9.93;;;;;;;;;;5000983;28;20034;-76
2023/08/18 08:47:01;;;;;;;16.42;10.15;;;;;;;;;;5006161;28;20362;-76
2023/08/18 08:49:31;;;;;;;16.02;10.18;;;;;;;;;;5004920;28;20029;-76
2023/08/18 08:52:05;;;;;;;16.42;9.57;;;;;;;;;;5002718;28;20025;-76
2023/08/18 08:54:33;;;;;;;16.38;10.55;;;;;;;;;;5006998;28;20044;-77
2023/08/18 08:57:00;;;;;;;17.48;10.55;;;;;;;;;;5012261;28;20466;-76
2023/08/18 08:59:25;;;;;;;15.05;10.35;;;;;;;;;;5008418;28;20482;-76
2023/08/18 09:01:52;;;;;;;17.80;10.85;;;;;;;;;;5009891;28;20037;-82
2023/08/18 09:04:18;;;;;;;16.73;10.73;;;;;;;;;;5026853;28;20022;-79
2023/08/18 09:06:44;;;;;;;15.68;10.27;;;;;;;;;;5063352;22;20026;-87
2023/08/18 09:09:09;;;;;;;14.95;10.57;;;;;;;;;;5026599;28;20038;-84
2023/08/18 09:11:42;;;;;;;16.27;9.43;;;;;;;;;;5024478;28;20053;-84
2023/08/18 09:14:11;;;;;;;15.13;10.40;;;;;;;;;;5129094;22;20038;-83
2023/08/18 09:19:15;;;;;;;15.93;9.80;;;;;;;;;;5108526;22;20051;-77
2023/08/18 09:21:41;;;;;;;14.45;9.18;;;;;;;;;;5124723;22;20064;-80
2023/08/18 09:24:07;;;;;;;15.45;10.00;;;;;;;;;;5043967;28;20032;-82
2023/08/18 09:26:33;;;;;;;14.38;9.20;;;;;;;;;;5045562;28;20037;-83
2023/08/18 09:28:58;;;;;;;14.65;9.88;;;;;;;;;;5044948;28;20070;-78
2023/08/18 09:31:23;;;;;;;11.98;9.13;;;;;;;;;;5224241;22;20042;-87
2023/08/18 09:36:25;;;;;;;13.25;8.70;;;;;;;;;;5405858;22;20026;-79
2023/08/18 09:49:06;;;;;;;13.68;9.23;;;;;;;;;;5046681;22;20081;-87
2023/08/18 09:51:32;;;;;;;15.10;9.88;;;;;;;;;;5174708;22;20059;-87
2023/08/18 09:56:36;;;;;;;13.68;9.55;;;;;;;;;;5009672;28;20022;-85
2023/08/18 10:01:41;;;;;;;13.77;9.55;;;;;;;;;;5202518;22;20050;-82
2023/08/18 10:04:08;;;;;;;13.30;9.10;;;;;;;;;;5052549;28;20074;-85
2023/08/18 10:06:36;;;;;;;13.00;9.30;;;;;;;;;;5086830;22;20915;-87
2023/08/18 10:09:01;;;;;;;12.48;9.20;;;;;;;;;;5409550;22;20048;-86
2023/08/18 10:11:27;;;;;;;14.32;9.63;;;;;;;;;;5226626;22;20041;-87
2023/08/18 10:13:53;;;;;;;12.90;8.73;;;;;;;;;;5030902;28;20029;-86
2023/08/18 10:16:20;;;;;;;12.43;8.77;;;;;;;;;;5031528;28;20036;-86
2023/08/18 10:18:54;;;;;;;13.93;9.25;;;;;;;;;;5029721;28;20432;-84
2023/08/18 10:21:20;;;;;;;12.43;9.65;;;;;;;;;;5029236;28;20160;-83
2023/08/18 10:23:47;;;;;;;12.98;9.48;;;;;;;;;;5021767;28;20068;-81
2023/08/18 10:26:14;;;;;;;13.38;8.60;;;;;;;;;;5019282;28;20040;-88
2023/08/18 10:28:40;;;;;;;11.77;8.63;;;;;;;;;;5019018;28;20084;-87
2023/08/18 10:31:11;;;;;;;13.07;9.05;;;;;;;;;;5020212;28;20029;-84
2023/08/18 10:33:44;;;;;;;13.63;9.38;;;;;;;;;;5037751;28;20498;-84
2023/08/18 10:36:12;;;;;;;13.80;10.05;;;;;;;;;;5045257;28;20057;-86
2023/08/18 10:38:41;;;;;;;14.15;9.77;;;;;;;;;;5042394;28;20027;-80
2023/08/18 10:41:07;;;;;;;14.23;9.52;;;;;;;;;;5052155;28;20013;-83
2023/08/18 10:43:42;;;;;;;12.48;7.97;;;;;;;;;;5040161;28;20036;-88
2023/08/18 10:46:12;;;;;;;16.20;10.13;;;;;;;;;;5041967;28;20029;-82
2023/08/18 10:48:38;;;;;;;11.77;8.73;;;;;;;;;;5046124;28;20037;-84
2023/08/18 10:53:40;;;;;;;12.20;9.13;;;;;;;;;;5348791;22;20049;-83
2023/08/18 10:58:40;;;;;;;13.75;10.15;;;;;;;;;;5021709;28;20034;-85
2023/08/18 11:01:08;;;;;;;13.18;9.50;;;;;;;;;;5068077;22;20113;-80
2023/08/18 11:03:33;;;;;;;15.32;10.07;;;;;;;;;;5051425;28;20097;-82
2023/08/18 11:05:59;;;;;;;13.68;9.88;;;;;;;;;;5061018;28;20040;-85
2023/08/18 11:08:25;;;;;;;12.02;8.90;;;;;;;;;;5045398;28;20033;-87
2023/08/18 11:10:53;;;;;;;12.43;9.20;;;;;;;;;;5049498;28;20080;-80
2023/08/18 11:13:27;;;;;;;13.73;9.57;;;;;;;;;;5035613;28;20025;-85
2023/08/18 11:15:54;;;;;;;13.80;9.63;;;;;;;;;;5035071;28;20424;-86
2023/08/18 11:18:21;;;;;;;13.27;10.10;;;;;;;;;;5059081;28;20033;-87
2023/08/18 11:20:48;;;;;;;12.27;9.00;;;;;;;;;;5057574;28;20424;-83
2023/08/18 11:23:13;;;;;;;11.73;9.13;;;;;;;;;;5029378;28;20021;-82
2023/08/18 11:25:39;;;;;;;11.63;8.80;;;;;;;;;;5029755;28;20021;-85
2023/08/18 11:28:05;;;;;;;14.15;9.75;;;;;;;;;;5043829;28;20021;-88
2023/08/18 11:30:31;;;;;;;11.77;8.65;;;;;;;;;;5029599;28;20044;-85
2023/08/18 11:32:57;;;;;;;11.52;8.38;;;;;;;;;;5024274;28;20036;-86
2023/08/18 11:35:24;;;;;;;14.63;9.65;;;;;;;;;;5031411;28;20025;-86
2023/08/18 11:37:51;;;;;;;12.13;9.40;;;;;;;;;;5032109;28;20017;-86
2023/08/18 11:40:18;;;;;;;12.30;9.57;;;;;;;;;;5035499;28;20052;-89
2023/08/18 11:42:46;;;;;;;11.60;8.65;;;;;;;;;;5044304;28;20059;-78
2023/08/18 11:45:17;;;;;;;12.15;8.50;;;;;;;;;;5027517;28;20752;-78
2023/08/18 11:47:43;;;;;;;10.25;7.95;;;;;;;;;;5022992;28;21832;-77
2023/08/18 11:50:09;;;;;;;11.38;8.65;;;;;;;;;;5029006;28;20029;-78
2023/08/18 11:52:46;;;;;;;12.70;9.95;;;;;;;;;;5030643;28;20391;-77
2023/08/18 11:55:12;;;;;;;10.48;8.48;;;;;;;;;;5024359;28;20457;-78
2023/08/18 11:57:45;;;;;;;10.65;8.70;;;;;;;;;;5044904;28;20493;-78
2023/08/18 12:00:13;;;;;;;11.88;8.82;;;;;;;;;;5046531;28;20027;-78
2023/08/18 12:02:47;;;;;;;11.88;9.07;;;;;;;;;;5023135;28;20037;-78
2023/08/18 12:05:22;;;;;;;10.88;8.27;;;;;;;;;;5028937;28;20026;-78
2023/08/18 12:07:53;;;;;;;9.93;7.95;;;;;;;;;;5029801;28;20025;-79
2023/08/18 12:10:20;;;;;;;9.98;7.70;;;;;;;;;;5030218;28;20486;-78
2023/08/18 12:12:53;;;;;;;11.60;8.57;;;;;;;;;;5032165;28;20097;-78
2023/08/18 12:15:20;;;;;;;11.85;9.18;;;;;;;;;;5035075;28;20581;-78
2023/08/18 12:17:45;;;;;;;10.55;8.40;;;;;;;;;;5030718;28;20067;-78
2023/08/18 12:20:11;;;;;;;11.65;9.25;;;;;;;;;;5027664;28;20041;-78
2023/08/18 12:22:36;;;;;;;10.65;8.40;;;;;;;;;;5027575;28;21894;-78
2023/08/18 12:25:02;;;;;;;12.20;9.10;;;;;;;;;;5026830;28;20095;-78
2023/08/18 12:27:29;;;;;;;12.50;10.07;;;;;;;;;;5030275;28;20493;-79
2023/08/18 12:29:56;;;;;;;11.30;8.52;;;;;;;;;;5019679;28;20021;-78
2023/08/18 12:32:21;;;;;;;10.60;9.15;;;;;;;;;;5030917;28;20549;-78
2023/08/18 12:34:50;;;;;;;9.85;8.00;;;;;;;;;;5026082;28;20120;-79
2023/08/18 12:37:18;;;;;;;11.15;8.70;;;;;;;;;;5026384;28;20082;-79
2023/08/18 12:39:45;;;;;;;9.60;7.78;;;;;;;;;;5040813;28;20040;-78
2023/08/18 12:42:10;;;;;;;9.73;7.20;;;;;;;;;;5041220;28;20503;-77
2023/08/18 12:44:35;;;;;;;9.75;7.75;;;;;;;;;;5040876;28;20045;-77
2023/08/18 12:47:01;;;;;;;7.95;6.13;;;;;;;;;;5026135;28;20072;-81
2023/08/18 12:49:26;;;;;;;12.02;8.27;;;;;;;;;;5024288;28;20029;-79
2023/08/18 12:51:51;;;;;;;9.93;8.27;;;;;;;;;;5025667;28;20033;-80
2023/08/18 12:54:17;;;;;;;9.82;7.88;;;;;;;;;;5024558;28;20036;-79
2023/08/18 12:56:42;;;;;;;8.68;6.60;;;;;;;;;;5025095;28;20029;-81
2023/08/18 12:59:08;;;;;;;10.18;8.18;;;;;;;;;;5025425;28;20040;-79
2023/08/18 13:01:34;;;;;;;10.82;9.00;;;;;;;;;;5028128;28;20045;-78
2023/08/18 13:04:00;;;;;;;10.40;7.80;;;;;;;;;;5023539;28;20086;-81
2023/08/18 13:06:25;;;;;;;8.45;7.00;;;;;;;;;;5032791;28;20029;-81
2023/08/18 13:08:51;;;;;;;9.27;8.25;;;;;;;;;;5023332;28;21706;-81
2023/08/18 13:11:16;;;;;;;12.27;8.20;;;;;;;;;;5045816;28;20029;-81
2023/08/18 13:13:42;;;;;;;8.73;6.68;;;;;;;;;;5034932;28;20044;-82
2023/08/18 13:16:10;;;;;;;9.05;6.85;;;;;;;;;;5018348;28;20058;-82
2023/08/18 13:18:35;;;;;;;9.40;8.32;;;;;;;;;;5019170;28;20046;-83
2023/08/18 13:21:01;;;;;;;9.52;7.60;;;;;;;;;;5015852;28;20815;-81
2023/08/18 13:23:26;;;;;;;9.57;8.35;;;;;;;;;;5033704;28;20037;-83
2023/08/18 13:25:52;;;;;;;9.85;7.68;;;;;;;;;;5020576;28;20123;-81
2023/08/18 13:28:18;;;;;;;9.30;6.68;;;;;;;;;;5019298;28;20033;-81
2023/08/18 13:30:44;;;;;;;8.70;7.78;;;;;;;;;;5021147;28;20017;-83
2023/08/18 13:33:09;;;;;;;8.23;6.50;;;;;;;;;;5018520;28;20033;-81
2023/08/18 13:35:35;;;;;;;8.88;7.28;;;;;;;;;;5012964;28;20056;-81
2023/08/18 13:38:00;;;;;;;10.90;7.82;;;;;;;;;;5020352;28;20029;-82
2023/08/18 13:40:25;;;;;;;10.75;6.50;;;;;;;;;;5016514;28;20026;-81
2023/08/18 13:42:52;;;;;;;9.38;7.80;;;;;;;;;;5022317;28;20484;-81
2023/08/18 13:45:18;;;;;;;7.97;6.43;;;;;;;;;;5017282;28;20075;-83
2023/08/18 13:47:43;;;;;;;8.65;7.20;;;;;;;;;;5017372;28;20641;-82
2023/08/18 13:50:08;;;;;;;10.65;7.47;;;;;;;;;;5009456;28;20281;-81
2023/08/18 13:52:34;;;;;;;8.35;6.72;;;;;;;;;;5017532;28;20068;-82
2023/08/18 13:54:59;;;;;;;8.57;6.05;;;;;;;;;;5019451;28;20037;-81
2023/08/18 13:57:25;;;;;;;9.15;7.07;;;;;;;;;;5018829;28;20033;-81
2023/08/18 13:59:50;;;;;;;8.98;7.10;;;;;;;;;;5017586;28;20029;-82
2023/08/18 14:02:15;;;;;;;8.48;6.70;;;;;;;;;;5017076;28;20033;-85
2023/08/18 14:04:41;;;;;;;8.15;7.30;;;;;;;;;;5021199;28;20044;-88
2023/08/18 14:07:06;;;;;;;9.82;7.05;;;;;;;;;;5017710;28;20529;-84
2023/08/18 14:09:32;;;;;;;8.93;6.97;;;;;;;;;;5008338;28;20046;-87
2023/08/18 14:12:00;;;;;;;9.23;6.68;;;;;;;;;;5036538;28;20028;-86
2023/08/18 14:14:26;;;;;;;7.60;6.72;;;;;;;;;;5018001;28;20141;-86
2023/08/18 14:16:51;;;;;;;10.88;8.25;;;;;;;;;;5014224;28;20544;-85
2023/08/18 14:19:17;;;;;;;8.07;6.10;;;;;;;;;;5012246;28;20025;-85
2023/08/18 14:21:44;;;;;;;7.85;6.80;;;;;;;;;;5011861;28;20104;-86
2023/08/18 14:24:10;;;;;;;8.55;7.05;;;;;;;;;;5012200;28;20036;-85
2023/08/18 14:26:38;;;;;;;8.50;6.38;;;;;;;;;;5011754;28;20036;-84
2023/08/18 14:29:04;;;;;;;8.85;6.85;;;;;;;;;;5017694;28;20453;-85
2023/08/18 14:31:29;;;;;;;7.88;6.18;;;;;;;;;;5026080;28;20151;-86
2023/08/18 14:33:56;;;;;;;8.02;6.63;;;;;;;;;;5014447;28;20453;-84
2023/08/18 14:36:21;;;;;;;9.02;7.03;;;;;;;;;;5028994;28;20934;-86
2023/08/18 14:38:47;;;;;;;8.20;6.85;;;;;;;;;;5020758;28;20029;-86
2023/08/18 14:41:12;;;;;;;9.10;7.75;;;;;;;;;;5021363;28;20040;-86
2023/08/18 14:43:39;;;;;;;8.55;7.65;;;;;;;;;;5036157;28;20030;-83
2023/08/18 14:46:05;;;;;;;10.05;8.43;;;;;;;;;;5037120;28;20484;-85
2023/08/18 14:48:31;;;;;;;10.27;8.57;;;;;;;;;;5017038;28;20485;-86
2023/08/18 14:50:56;;;;;;;9.50;7.38;;;;;;;;;;5018880;28;20039;-83
2023/08/18 14:53:22;;;;;;;10.30;7.75;;;;;;;;;;5013951;28;20029;-84
2023/08/18 14:55:51;;;;;;;8.82;7.75;;;;;;;;;;5024234;28;20437;-86